sensor_id;sensor_type;location;lat;lon;timestamp;P1;durP1;ratioP1;P2;durP2;ratioP2
23270;SDS011;11804;51.118;17.058;2023-05-10T00:02:15;6.70;;;3.33;;
23270;SDS011;11804;51.118;17.058;2023-05-10T00:04:43;3.67;;;2.67;;
23270;SDS011;11804;51.118;17.058;2023-05-10T00:07:10;4.40;;;3.03;;
23270;SDS011;11804;51.118;17.058;2023-05-10T00:09:38;5.07;;;3.20;;
23270;SDS011;11804;51.118;17.058;2023-05-10T00:12:05;5.20;;;2.83;;
23270;SDS011;11804;51.118;17.058;2023-05-10T00:14:33;6.23;;;3.10;;
23270;SDS011;11804;51.118;17.058;2023-05-10T00:17:01;5.80;;;3.00;;
23270;SDS011;11804;51.118;17.058;2023-05-10T00:19:28;4.67;;;2.93;;
23270;SDS011;11804;51.118;17.058;2023-05-10T00:21:56;4.77;;;3.10;;
23270;SDS011;11804;51.118;17.058;2023-05-10T00:24:23;6.23;;;2.87;;
23270;SDS011;11804;51.118;17.058;2023-05-10T00:26:51;3.90;;;2.70;;
23270;SDS011;11804;51.118;17.058;2023-05-10T00:29:19;4.53;;;3.20;;
23270;SDS011;11804;51.118;17.058;2023-05-10T00:31:46;4.67;;;3.00;;
23270;SDS011;11804;51.118;17.058;2023-05-10T00:34:14;4.90;;;3.17;;
23270;SDS011;11804;51.118;17.058;2023-05-10T00:36:42;5.83;;;2.83;;
23270;SDS011;11804;51.118;17.058;2023-05-10T00:39:09;5.03;;;2.90;;
23270;SDS011;11804;51.118;17.058;2023-05-10T00:41:38;4.07;;;2.87;;
23270;SDS011;11804;51.118;17.058;2023-05-10T00:44:06;5.33;;;2.90;;
23270;SDS011;11804;51.118;17.058;2023-05-10T00:46:33;6.60;;;3.47;;
23270;SDS011;11804;51.118;17.058;2023-05-10T00:49:01;4.93;;;3.33;;
23270;SDS011;11804;51.118;17.058;2023-05-10T00:51:30;4.33;;;2.90;;
23270;SDS011;11804;51.118;17.058;2023-05-10T00:53:57;7.87;;;2.90;;
23270;SDS011;11804;51.118;17.058;2023-05-10T00:56:25;5.30;;;2.97;;
23270;SDS011;11804;51.118;17.058;2023-05-10T00:58:55;5.17;;;3.20;;
23270;SDS011;11804;51.118;17.058;2023-05-10T01:01:23;4.77;;;3.10;;
23270;SDS011;11804;51.118;17.058;2023-05-10T01:03:51;4.60;;;2.83;;
23270;SDS011;11804;51.118;17.058;2023-05-10T01:06:19;5.03;;;3.20;;
23270;SDS011;11804;51.118;17.058;2023-05-10T01:08:48;6.50;;;2.90;;
23270;SDS011;11804;51.118;17.058;2023-05-10T01:11:16;5.73;;;2.80;;
23270;SDS011;11804;51.118;17.058;2023-05-10T01:13:44;5.20;;;3.00;;
23270;SDS011;11804;51.118;17.058;2023-05-10T01:16:14;5.47;;;3.10;;
23270;SDS011;11804;51.118;17.058;2023-05-10T01:18:42;4.83;;;3.23;;
23270;SDS011;11804;51.118;17.058;2023-05-10T01:21:17;6.57;;;3.30;;
23270;SDS011;11804;51.118;17.058;2023-05-10T01:34:54;5.03;;;3.37;;
23270;SDS011;11804;51.118;17.058;2023-05-10T01:37:29;4.43;;;3.03;;
23270;SDS011;11804;51.118;17.058;2023-05-10T01:40:02;6.30;;;3.47;;
23270;SDS011;11804;51.118;17.058;2023-05-10T01:42:33;6.43;;;3.60;;
23270;SDS011;11804;51.118;17.058;2023-05-10T01:47:44;5.10;;;3.23;;
23270;SDS011;11804;51.118;17.058;2023-05-10T01:50:15;6.23;;;3.00;;
23270;SDS011;11804;51.118;17.058;2023-05-10T01:52:47;4.60;;;3.20;;
23270;SDS011;11804;51.118;17.058;2023-05-10T01:55:18;5.63;;;3.03;;
23270;SDS011;11804;51.118;17.058;2023-05-10T01:57:48;5.17;;;2.83;;
23270;SDS011;11804;51.118;17.058;2023-05-10T02:00:18;5.13;;;3.07;;
23270;SDS011;11804;51.118;17.058;2023-05-10T02:02:47;4.83;;;3.03;;
23270;SDS011;11804;51.118;17.058;2023-05-10T02:05:16;4.70;;;2.77;;
23270;SDS011;11804;51.118;17.058;2023-05-10T02:07:45;5.33;;;2.83;;
23270;SDS011;11804;51.118;17.058;2023-05-10T02:10:15;5.50;;;3.30;;
23270;SDS011;11804;51.118;17.058;2023-05-10T02:12:44;4.00;;;3.10;;
23270;SDS011;11804;51.118;17.058;2023-05-10T02:15:15;4.83;;;3.27;;
23270;SDS011;11804;51.118;17.058;2023-05-10T02:17:46;5.20;;;3.47;;
23270;SDS011;11804;51.118;17.058;2023-05-10T02:20:14;5.37;;;3.13;;
23270;SDS011;11804;51.118;17.058;2023-05-10T02:22:44;4.57;;;3.10;;
23270;SDS011;11804;51.118;17.058;2023-05-10T02:25:16;3.87;;;2.83;;
23270;SDS011;11804;51.118;17.058;2023-05-10T02:27:44;5.90;;;3.20;;
23270;SDS011;11804;51.118;17.058;2023-05-10T02:30:13;6.60;;;3.07;;
23270;SDS011;11804;51.118;17.058;2023-05-10T02:32:42;3.77;;;2.57;;
23270;SDS011;11804;51.118;17.058;2023-05-10T02:35:11;4.90;;;3.10;;
23270;SDS011;11804;51.118;17.058;2023-05-10T02:37:39;5.40;;;3.13;;
23270;SDS011;11804;51.118;17.058;2023-05-10T02:40:08;5.57;;;3.17;;
23270;SDS011;11804;51.118;17.058;2023-05-10T02:42:37;4.60;;;2.77;;
23270;SDS011;11804;51.118;17.058;2023-05-10T02:45:09;4.70;;;3.10;;
23270;SDS011;11804;51.118;17.058;2023-05-10T02:47:41;4.97;;;3.03;;
23270;SDS011;11804;51.118;17.058;2023-05-10T02:50:09;5.07;;;3.03;;
23270;SDS011;11804;51.118;17.058;2023-05-10T02:52:39;5.40;;;3.30;;
23270;SDS011;11804;51.118;17.058;2023-05-10T02:55:07;4.90;;;3.10;;
23270;SDS011;11804;51.118;17.058;2023-05-10T02:57:39;6.17;;;3.60;;
23270;SDS011;11804;51.118;17.058;2023-05-10T03:00:14;6.00;;;3.20;;
23270;SDS011;11804;51.118;17.058;2023-05-10T03:02:41;6.80;;;3.30;;
23270;SDS011;11804;51.118;17.058;2023-05-10T03:05:08;4.73;;;3.17;;
23270;SDS011;11804;51.118;17.058;2023-05-10T03:07:36;4.27;;;2.63;;
23270;SDS011;11804;51.118;17.058;2023-05-10T03:10:06;4.80;;;2.87;;
23270;SDS011;11804;51.118;17.058;2023-05-10T03:20:29;4.27;;;2.90;;
23270;SDS011;11804;51.118;17.058;2023-05-10T03:23:02;5.90;;;3.33;;
23270;SDS011;11804;51.118;17.058;2023-05-10T03:25:32;5.97;;;3.10;;
23270;SDS011;11804;51.118;17.058;2023-05-10T03:28:01;7.30;;;3.57;;
23270;SDS011;11804;51.118;17.058;2023-05-10T03:30:30;6.37;;;3.17;;
23270;SDS011;11804;51.118;17.058;2023-05-10T03:33:04;6.37;;;3.30;;
23270;SDS011;11804;51.118;17.058;2023-05-10T03:35:32;5.43;;;3.20;;
23270;SDS011;11804;51.118;17.058;2023-05-10T03:37:59;5.67;;;3.10;;
23270;SDS011;11804;51.118;17.058;2023-05-10T03:40:27;5.77;;;3.47;;
23270;SDS011;11804;51.118;17.058;2023-05-10T03:43:00;8.47;;;3.60;;
23270;SDS011;11804;51.118;17.058;2023-05-10T03:45:28;6.83;;;3.27;;
23270;SDS011;11804;51.118;17.058;2023-05-10T03:47:56;5.27;;;3.30;;
23270;SDS011;11804;51.118;17.058;2023-05-10T03:50:25;6.43;;;3.00;;
23270;SDS011;11804;51.118;17.058;2023-05-10T03:52:52;6.13;;;3.40;;
23270;SDS011;11804;51.118;17.058;2023-05-10T03:55:20;6.67;;;3.30;;
23270;SDS011;11804;51.118;17.058;2023-05-10T03:57:48;7.77;;;3.40;;
23270;SDS011;11804;51.118;17.058;2023-05-10T04:00:16;4.23;;;2.90;;
23270;SDS011;11804;51.118;17.058;2023-05-10T04:02:43;6.47;;;3.47;;
23270;SDS011;11804;51.118;17.058;2023-05-10T04:05:11;5.27;;;3.03;;
23270;SDS011;11804;51.118;17.058;2023-05-10T04:07:38;5.07;;;2.90;;
23270;SDS011;11804;51.118;17.058;2023-05-10T04:10:07;3.77;;;2.97;;
23270;SDS011;11804;51.118;17.058;2023-05-10T04:12:35;6.23;;;3.60;;
23270;SDS011;11804;51.118;17.058;2023-05-10T04:15:02;4.03;;;2.73;;
23270;SDS011;11804;51.118;17.058;2023-05-10T04:17:31;5.27;;;3.17;;
23270;SDS011;11804;51.118;17.058;2023-05-10T04:19:59;6.63;;;3.13;;
23270;SDS011;11804;51.118;17.058;2023-05-10T04:22:26;5.30;;;3.43;;
23270;SDS011;11804;51.118;17.058;2023-05-10T04:24:54;5.57;;;2.90;;
23270;SDS011;11804;51.118;17.058;2023-05-10T04:27:22;4.93;;;3.00;;
23270;SDS011;11804;51.118;17.058;2023-05-10T04:29:50;4.67;;;2.80;;
23270;SDS011;11804;51.118;17.058;2023-05-10T04:32:17;7.07;;;3.03;;
23270;SDS011;11804;51.118;17.058;2023-05-10T04:34:46;4.33;;;3.33;;
23270;SDS011;11804;51.118;17.058;2023-05-10T04:37:13;6.90;;;3.73;;
23270;SDS011;11804;51.118;17.058;2023-05-10T04:39:41;5.33;;;3.13;;
23270;SDS011;11804;51.118;17.058;2023-05-10T04:42:09;5.47;;;3.43;;
23270;SDS011;11804;51.118;17.058;2023-05-10T04:44:37;4.57;;;2.53;;
23270;SDS011;11804;51.118;17.058;2023-05-10T04:47:05;5.13;;;2.80;;
23270;SDS011;11804;51.118;17.058;2023-05-10T04:49:33;4.30;;;3.00;;
23270;SDS011;11804;51.118;17.058;2023-05-10T04:52:00;6.40;;;3.50;;
23270;SDS011;11804;51.118;17.058;2023-05-10T04:54:28;4.20;;;2.93;;
23270;SDS011;11804;51.118;17.058;2023-05-10T04:56:56;5.57;;;3.20;;
23270;SDS011;11804;51.118;17.058;2023-05-10T04:59:23;3.40;;;2.87;;
23270;SDS011;11804;51.118;17.058;2023-05-10T05:01:51;6.60;;;3.30;;
23270;SDS011;11804;51.118;17.058;2023-05-10T05:04:19;7.27;;;3.33;;
23270;SDS011;11804;51.118;17.058;2023-05-10T05:06:48;8.37;;;3.40;;
23270;SDS011;11804;51.118;17.058;2023-05-10T05:09:15;5.43;;;3.27;;
23270;SDS011;11804;51.118;17.058;2023-05-10T05:11:43;4.60;;;3.00;;
23270;SDS011;11804;51.118;17.058;2023-05-10T05:14:10;5.23;;;2.73;;
23270;SDS011;11804;51.118;17.058;2023-05-10T05:16:38;5.47;;;3.40;;
23270;SDS011;11804;51.118;17.058;2023-05-10T05:19:06;6.10;;;2.87;;
23270;SDS011;11804;51.118;17.058;2023-05-10T05:21:33;5.47;;;3.17;;
23270;SDS011;11804;51.118;17.058;2023-05-10T05:24:01;7.23;;;3.03;;
23270;SDS011;11804;51.118;17.058;2023-05-10T05:26:29;5.47;;;3.53;;
23270;SDS011;11804;51.118;17.058;2023-05-10T05:28:56;4.87;;;2.90;;
23270;SDS011;11804;51.118;17.058;2023-05-10T05:31:24;4.87;;;3.23;;
23270;SDS011;11804;51.118;17.058;2023-05-10T05:33:52;6.47;;;3.53;;
23270;SDS011;11804;51.118;17.058;2023-05-10T05:36:19;6.73;;;3.17;;
23270;SDS011;11804;51.118;17.058;2023-05-10T05:38:47;5.63;;;3.03;;
23270;SDS011;11804;51.118;17.058;2023-05-10T05:41:15;5.10;;;3.33;;
23270;SDS011;11804;51.118;17.058;2023-05-10T05:43:42;4.83;;;3.30;;
23270;SDS011;11804;51.118;17.058;2023-05-10T05:46:10;5.53;;;3.27;;
23270;SDS011;11804;51.118;17.058;2023-05-10T05:48:38;4.87;;;3.13;;
23270;SDS011;11804;51.118;17.058;2023-05-10T05:51:05;5.37;;;2.90;;
23270;SDS011;11804;51.118;17.058;2023-05-10T05:53:33;4.05;;;3.10;;
23270;SDS011;11804;51.118;17.058;2023-05-10T05:56:01;6.15;;;3.40;;
23270;SDS011;11804;51.118;17.058;2023-05-10T05:58:30;11.25;;;4.17;;
23270;SDS011;11804;51.118;17.058;2023-05-10T06:00:58;5.40;;;3.40;;
23270;SDS011;11804;51.118;17.058;2023-05-10T06:03:25;6.20;;;3.65;;
23270;SDS011;11804;51.118;17.058;2023-05-10T06:05:54;5.03;;;3.15;;
23270;SDS011;11804;51.118;17.058;2023-05-10T06:08:22;4.47;;;2.83;;
23270;SDS011;11804;51.118;17.058;2023-05-10T06:10:50;6.08;;;3.67;;
23270;SDS011;11804;51.118;17.058;2023-05-10T06:13:17;6.17;;;3.33;;
23270;SDS011;11804;51.118;17.058;2023-05-10T06:15:45;5.03;;;3.20;;
23270;SDS011;11804;51.118;17.058;2023-05-10T06:18:12;3.55;;;2.80;;
23270;SDS011;11804;51.118;17.058;2023-05-10T06:20:40;5.20;;;3.47;;
23270;SDS011;11804;51.118;17.058;2023-05-10T06:23:08;5.40;;;2.98;;
23270;SDS011;11804;51.118;17.058;2023-05-10T06:25:36;5.37;;;3.15;;
23270;SDS011;11804;51.118;17.058;2023-05-10T06:28:04;4.27;;;2.60;;
23270;SDS011;11804;51.118;17.058;2023-05-10T06:30:31;4.43;;;2.80;;
23270;SDS011;11804;51.118;17.058;2023-05-10T06:32:59;4.53;;;3.23;;
23270;SDS011;11804;51.118;17.058;2023-05-10T06:35:27;7.20;;;3.17;;
23270;SDS011;11804;51.118;17.058;2023-05-10T06:37:55;4.03;;;2.83;;
23270;SDS011;11804;51.118;17.058;2023-05-10T06:40:23;4.53;;;2.80;;
23270;SDS011;11804;51.118;17.058;2023-05-10T06:42:52;3.97;;;2.67;;
23270;SDS011;11804;51.118;17.058;2023-05-10T06:45:20;4.17;;;3.03;;
23270;SDS011;11804;51.118;17.058;2023-05-10T06:47:47;3.92;;;2.55;;
23270;SDS011;11804;51.118;17.058;2023-05-10T06:50:15;3.62;;;2.55;;
23270;SDS011;11804;51.118;17.058;2023-05-10T06:52:42;4.33;;;2.70;;
23270;SDS011;11804;51.118;17.058;2023-05-10T06:55:10;4.28;;;2.60;;
23270;SDS011;11804;51.118;17.058;2023-05-10T06:57:38;4.70;;;3.05;;
23270;SDS011;11804;51.118;17.058;2023-05-10T07:00:08;3.65;;;2.80;;
23270;SDS011;11804;51.118;17.058;2023-05-10T07:02:37;3.80;;;2.62;;
23270;SDS011;11804;51.118;17.058;2023-05-10T07:05:05;5.75;;;2.60;;
23270;SDS011;11804;51.118;17.058;2023-05-10T07:07:33;3.95;;;2.70;;
23270;SDS011;11804;51.118;17.058;2023-05-10T07:10:01;6.03;;;2.77;;
23270;SDS011;11804;51.118;17.058;2023-05-10T07:12:28;4.07;;;2.40;;
23270;SDS011;11804;51.118;17.058;2023-05-10T07:14:58;3.87;;;2.50;;
23270;SDS011;11804;51.118;17.058;2023-05-10T07:17:25;5.37;;;2.80;;
23270;SDS011;11804;51.118;17.058;2023-05-10T07:19:53;4.50;;;2.33;;
23270;SDS011;11804;51.118;17.058;2023-05-10T07:22:21;4.22;;;2.67;;
23270;SDS011;11804;51.118;17.058;2023-05-10T07:24:48;3.10;;;2.27;;
23270;SDS011;11804;51.118;17.058;2023-05-10T07:27:16;4.83;;;2.67;;
23270;SDS011;11804;51.118;17.058;2023-05-10T07:29:44;3.58;;;2.45;;
23270;SDS011;11804;51.118;17.058;2023-05-10T07:32:11;3.85;;;2.50;;
23270;SDS011;11804;51.118;17.058;2023-05-10T07:34:39;3.77;;;2.47;;
23270;SDS011;11804;51.118;17.058;2023-05-10T07:37:08;8.43;;;2.72;;
23270;SDS011;11804;51.118;17.058;2023-05-10T07:39:36;4.53;;;2.95;;
23270;SDS011;11804;51.118;17.058;2023-05-10T07:42:03;3.87;;;2.47;;
23270;SDS011;11804;51.118;17.058;2023-05-10T07:44:31;6.20;;;2.50;;
23270;SDS011;11804;51.118;17.058;2023-05-10T07:46:59;3.15;;;2.52;;
23270;SDS011;11804;51.118;17.058;2023-05-10T07:49:26;3.75;;;2.55;;
23270;SDS011;11804;51.118;17.058;2023-05-10T07:51:54;2.62;;;2.17;;
23270;SDS011;11804;51.118;17.058;2023-05-10T07:54:22;7.25;;;2.45;;
23270;SDS011;11804;51.118;17.058;2023-05-10T07:56:50;5.00;;;3.12;;
23270;SDS011;11804;51.118;17.058;2023-05-10T07:59:18;3.35;;;2.42;;
23270;SDS011;11804;51.118;17.058;2023-05-10T08:01:46;4.95;;;2.52;;
23270;SDS011;11804;51.118;17.058;2023-05-10T08:04:13;5.80;;;2.50;;
23270;SDS011;11804;51.118;17.058;2023-05-10T08:06:41;3.60;;;2.80;;
23270;SDS011;11804;51.118;17.058;2023-05-10T08:09:09;6.33;;;2.60;;
23270;SDS011;11804;51.118;17.058;2023-05-10T08:11:37;3.50;;;2.37;;
23270;SDS011;11804;51.118;17.058;2023-05-10T08:14:05;2.70;;;2.20;;
23270;SDS011;11804;51.118;17.058;2023-05-10T08:16:32;2.58;;;1.90;;
23270;SDS011;11804;51.118;17.058;2023-05-10T08:19:00;3.02;;;2.10;;
23270;SDS011;11804;51.118;17.058;2023-05-10T08:21:29;3.47;;;2.20;;
23270;SDS011;11804;51.118;17.058;2023-05-10T08:23:57;4.20;;;2.98;;
23270;SDS011;11804;51.118;17.058;2023-05-10T08:26:25;4.03;;;2.25;;
23270;SDS011;11804;51.118;17.058;2023-05-10T08:28:52;3.10;;;2.12;;
23270;SDS011;11804;51.118;17.058;2023-05-10T08:31:20;2.50;;;2.00;;
23270;SDS011;11804;51.118;17.058;2023-05-10T08:33:49;5.55;;;2.00;;
23270;SDS011;11804;51.118;17.058;2023-05-10T08:36:18;3.15;;;1.98;;
23270;SDS011;11804;51.118;17.058;2023-05-10T08:38:49;2.62;;;2.10;;
23270;SDS011;11804;51.118;17.058;2023-05-10T08:41:19;5.83;;;2.47;;
23270;SDS011;11804;51.118;17.058;2023-05-10T08:43:53;4.12;;;2.80;;
23270;SDS011;11804;51.118;17.058;2023-05-10T08:46:21;2.42;;;1.90;;
23270;SDS011;11804;51.118;17.058;2023-05-10T08:48:50;4.17;;;2.00;;
23270;SDS011;11804;51.118;17.058;2023-05-10T08:51:19;2.45;;;2.00;;
23270;SDS011;11804;51.118;17.058;2023-05-10T08:53:49;2.35;;;1.85;;
23270;SDS011;11804;51.118;17.058;2023-05-10T08:56:18;2.67;;;1.50;;
23270;SDS011;11804;51.118;17.058;2023-05-10T08:58:46;2.25;;;1.70;;
23270;SDS011;11804;51.118;17.058;2023-05-10T09:01:15;2.47;;;1.57;;
23270;SDS011;11804;51.118;17.058;2023-05-10T09:03:45;2.40;;;1.60;;
23270;SDS011;11804;51.118;17.058;2023-05-10T09:06:14;3.83;;;1.90;;
23270;SDS011;11804;51.118;17.058;2023-05-10T09:08:42;2.15;;;1.70;;
23270;SDS011;11804;51.118;17.058;2023-05-10T09:11:12;3.10;;;1.77;;
23270;SDS011;11804;51.118;17.058;2023-05-10T09:13:39;3.30;;;2.02;;
23270;SDS011;11804;51.118;17.058;2023-05-10T09:16:08;2.58;;;1.87;;
23270;SDS011;11804;51.118;17.058;2023-05-10T09:18:36;2.85;;;2.12;;
23270;SDS011;11804;51.118;17.058;2023-05-10T09:21:04;2.40;;;1.90;;
23270;SDS011;11804;51.118;17.058;2023-05-10T09:23:31;2.17;;;1.87;;
23270;SDS011;11804;51.118;17.058;2023-05-10T09:26:02;3.80;;;1.90;;
23270;SDS011;11804;51.118;17.058;2023-05-10T09:28:33;5.22;;;2.02;;
23270;SDS011;11804;51.118;17.058;2023-05-10T09:31:02;2.98;;;2.08;;
23270;SDS011;11804;51.118;17.058;2023-05-10T09:33:29;2.45;;;1.70;;
23270;SDS011;11804;51.118;17.058;2023-05-10T09:36:06;2.52;;;1.90;;
23270;SDS011;11804;51.118;17.058;2023-05-10T09:41:22;2.90;;;1.95;;
23270;SDS011;11804;51.118;17.058;2023-05-10T09:43:47;5.47;;;1.98;;
23270;SDS011;11804;51.118;17.058;2023-05-10T09:46:15;2.85;;;2.40;;
23270;SDS011;11804;51.118;17.058;2023-05-10T09:48:44;2.15;;;1.50;;
23270;SDS011;11804;51.118;17.058;2023-05-10T09:51:23;3.45;;;2.20;;
23270;SDS011;11804;51.118;17.058;2023-05-10T09:56:40;1.95;;;1.65;;
23270;SDS011;11804;51.118;17.058;2023-05-10T09:59:10;2.90;;;1.80;;
23270;SDS011;11804;51.118;17.058;2023-05-10T10:01:38;2.15;;;1.80;;
23270;SDS011;11804;51.118;17.058;2023-05-10T10:04:08;4.35;;;2.17;;
23270;SDS011;11804;51.118;17.058;2023-05-10T10:06:36;2.45;;;1.60;;
23270;SDS011;11804;51.118;17.058;2023-05-10T10:09:05;3.37;;;1.55;;
23270;SDS011;11804;51.118;17.058;2023-05-10T10:11:34;3.40;;;2.50;;
23270;SDS011;11804;51.118;17.058;2023-05-10T10:14:04;2.72;;;2.10;;
23270;SDS011;11804;51.118;17.058;2023-05-10T10:16:32;2.55;;;2.15;;
23270;SDS011;11804;51.118;17.058;2023-05-10T10:18:59;3.52;;;2.30;;
23270;SDS011;11804;51.118;17.058;2023-05-10T10:21:27;2.22;;;1.77;;
23270;SDS011;11804;51.118;17.058;2023-05-10T10:23:56;2.77;;;1.95;;
23270;SDS011;11804;51.118;17.058;2023-05-10T10:26:24;2.90;;;1.82;;
23270;SDS011;11804;51.118;17.058;2023-05-10T10:29:08;2.67;;;1.60;;
23270;SDS011;11804;51.118;17.058;2023-05-10T10:31:40;2.40;;;1.70;;
23270;SDS011;11804;51.118;17.058;2023-05-10T10:34:09;2.47;;;1.75;;
23270;SDS011;11804;51.118;17.058;2023-05-10T10:36:40;3.90;;;1.75;;
23270;SDS011;11804;51.118;17.058;2023-05-10T10:39:10;3.85;;;1.50;;
23270;SDS011;11804;51.118;17.058;2023-05-10T10:47:22;2.52;;;1.57;;
23270;SDS011;11804;51.118;17.058;2023-05-10T10:49:43;2.17;;;1.70;;
23270;SDS011;11804;51.118;17.058;2023-05-10T10:52:22;2.08;;;1.62;;
23270;SDS011;11804;51.118;17.058;2023-05-10T10:55:00;2.47;;;1.70;;
23270;SDS011;11804;51.118;17.058;2023-05-10T10:57:31;4.58;;;2.00;;
23270;SDS011;11804;51.118;17.058;2023-05-10T11:00:19;2.25;;;1.85;;
23270;SDS011;11804;51.118;17.058;2023-05-10T11:05:41;3.58;;;1.70;;
23270;SDS011;11804;51.118;17.058;2023-05-10T11:08:11;2.98;;;1.62;;
23270;SDS011;11804;51.118;17.058;2023-05-10T11:11:02;3.33;;;2.05;;
23270;SDS011;11804;51.118;17.058;2023-05-10T11:13:30;3.02;;;2.25;;
23270;SDS011;11804;51.118;17.058;2023-05-10T11:16:15;3.12;;;1.90;;
23270;SDS011;11804;51.118;17.058;2023-05-10T11:19:02;3.02;;;2.15;;
23270;SDS011;11804;51.118;17.058;2023-05-10T11:21:32;2.72;;;2.02;;
23270;SDS011;11804;51.118;17.058;2023-05-10T11:24:01;2.30;;;1.82;;
23270;SDS011;11804;51.118;17.058;2023-05-10T11:26:32;2.55;;;1.95;;
23270;SDS011;11804;51.118;17.058;2023-05-10T11:29:02;4.25;;;1.60;;
23270;SDS011;11804;51.118;17.058;2023-05-10T11:31:30;3.52;;;1.80;;
23270;SDS011;11804;51.118;17.058;2023-05-10T11:33:58;2.05;;;1.65;;
23270;SDS011;11804;51.118;17.058;2023-05-10T11:36:28;1.60;;;1.40;;
23270;SDS011;11804;51.118;17.058;2023-05-10T11:38:57;1.67;;;1.50;;
23270;SDS011;11804;51.118;17.058;2023-05-10T11:41:26;2.00;;;1.40;;
23270;SDS011;11804;51.118;17.058;2023-05-10T11:43:55;2.70;;;1.95;;
23270;SDS011;11804;51.118;17.058;2023-05-10T11:46:24;4.10;;;1.57;;
23270;SDS011;11804;51.118;17.058;2023-05-10T11:48:55;2.83;;;1.75;;
23270;SDS011;11804;51.118;17.058;2023-05-10T11:51:32;2.30;;;1.92;;
23270;SDS011;11804;51.118;17.058;2023-05-10T11:54:02;2.52;;;1.80;;
23270;SDS011;11804;51.118;17.058;2023-05-10T11:56:35;2.35;;;1.20;;
23270;SDS011;11804;51.118;17.058;2023-05-10T11:59:06;3.87;;;2.40;;
23270;SDS011;11804;51.118;17.058;2023-05-10T12:01:34;2.33;;;1.70;;
23270;SDS011;11804;51.118;17.058;2023-05-10T12:04:02;2.95;;;1.67;;
23270;SDS011;11804;51.118;17.058;2023-05-10T12:06:33;1.50;;;1.40;;
23270;SDS011;11804;51.118;17.058;2023-05-10T12:09:02;4.42;;;1.57;;
23270;SDS011;11804;51.118;17.058;2023-05-10T12:11:36;2.02;;;1.77;;
23270;SDS011;11804;51.118;17.058;2023-05-10T12:14:04;1.62;;;1.40;;
23270;SDS011;11804;51.118;17.058;2023-05-10T12:16:32;3.25;;;1.62;;
23270;SDS011;11804;51.118;17.058;2023-05-10T12:19:00;2.17;;;1.92;;
23270;SDS011;11804;51.118;17.058;2023-05-10T12:21:28;1.67;;;1.40;;
23270;SDS011;11804;51.118;17.058;2023-05-10T12:23:59;2.12;;;1.42;;
23270;SDS011;11804;51.118;17.058;2023-05-10T12:26:32;1.65;;;1.45;;
23270;SDS011;11804;51.118;17.058;2023-05-10T12:29:14;3.45;;;1.95;;
23270;SDS011;11804;51.118;17.058;2023-05-10T12:31:53;1.80;;;1.70;;
23270;SDS011;11804;51.118;17.058;2023-05-10T12:34:26;2.20;;;1.52;;
23270;SDS011;11804;51.118;17.058;2023-05-10T12:36:58;2.37;;;1.80;;
23270;SDS011;11804;51.118;17.058;2023-05-10T12:39:37;2.83;;;1.72;;
23270;SDS011;11804;51.118;17.058;2023-05-10T12:42:05;11.38;;;1.95;;
23270;SDS011;11804;51.118;17.058;2023-05-10T12:44:33;2.12;;;1.70;;
23270;SDS011;11804;51.118;17.058;2023-05-10T12:47:00;1.30;;;1.20;;
23270;SDS011;11804;51.118;17.058;2023-05-10T12:49:28;2.72;;;1.50;;
23270;SDS011;11804;51.118;17.058;2023-05-10T12:51:56;2.20;;;1.70;;
23270;SDS011;11804;51.118;17.058;2023-05-10T12:54:23;1.27;;;1.07;;
23270;SDS011;11804;51.118;17.058;2023-05-10T12:56:51;3.27;;;1.35;;
23270;SDS011;11804;51.118;17.058;2023-05-10T12:59:19;2.95;;;1.77;;
23270;SDS011;11804;51.118;17.058;2023-05-10T13:01:46;1.70;;;1.55;;
23270;SDS011;11804;51.118;17.058;2023-05-10T13:04:14;2.12;;;1.40;;
23270;SDS011;11804;51.118;17.058;2023-05-10T13:06:44;1.85;;;1.60;;
23270;SDS011;11804;51.118;17.058;2023-05-10T13:09:11;5.55;;;1.77;;
23270;SDS011;11804;51.118;17.058;2023-05-10T13:11:39;2.30;;;1.40;;
23270;SDS011;11804;51.118;17.058;2023-05-10T13:14:07;3.05;;;1.82;;
23270;SDS011;11804;51.118;17.058;2023-05-10T13:16:36;1.20;;;1.10;;
23270;SDS011;11804;51.118;17.058;2023-05-10T13:19:03;1.40;;;1.20;;
23270;SDS011;11804;51.118;17.058;2023-05-10T13:21:32;2.77;;;1.40;;
23270;SDS011;11804;51.118;17.058;2023-05-10T13:23:59;2.30;;;1.70;;
23270;SDS011;11804;51.118;17.058;2023-05-10T13:26:32;2.05;;;1.10;;
23270;SDS011;11804;51.118;17.058;2023-05-10T13:29:02;2.37;;;1.62;;
23270;SDS011;11804;51.118;17.058;2023-05-10T13:31:30;1.92;;;1.30;;
23270;SDS011;11804;51.118;17.058;2023-05-10T13:33:58;2.30;;;1.50;;
23270;SDS011;11804;51.118;17.058;2023-05-10T13:36:31;1.35;;;1.22;;
23270;SDS011;11804;51.118;17.058;2023-05-10T13:38:55;3.83;;;1.30;;
23270;SDS011;11804;51.118;17.058;2023-05-10T13:41:24;1.72;;;1.60;;
23270;SDS011;11804;51.118;17.058;2023-05-10T13:43:53;2.08;;;1.40;;
23270;SDS011;11804;51.118;17.058;2023-05-10T13:46:21;1.50;;;1.00;;
23270;SDS011;11804;51.118;17.058;2023-05-10T13:48:49;3.33;;;1.72;;
23270;SDS011;11804;51.118;17.058;2023-05-10T13:51:16;2.02;;;1.32;;
23270;SDS011;11804;51.118;17.058;2023-05-10T13:53:44;1.40;;;1.22;;
23270;SDS011;11804;51.118;17.058;2023-05-10T13:56:14;2.25;;;1.40;;
23270;SDS011;11804;51.118;17.058;2023-05-10T13:58:45;1.50;;;1.30;;
23270;SDS011;11804;51.118;17.058;2023-05-10T14:01:13;1.98;;;1.37;;
23270;SDS011;11804;51.118;17.058;2023-05-10T14:03:41;1.60;;;1.22;;
23270;SDS011;11804;51.118;17.058;2023-05-10T14:06:08;2.50;;;1.82;;
23270;SDS011;11804;51.118;17.058;2023-05-10T14:08:36;1.50;;;1.40;;
23270;SDS011;11804;51.118;17.058;2023-05-10T14:11:04;1.80;;;1.30;;
23270;SDS011;11804;51.118;17.058;2023-05-10T14:13:32;1.87;;;1.40;;
23270;SDS011;11804;51.118;17.058;2023-05-10T14:16:00;2.83;;;1.70;;
23270;SDS011;11804;51.118;17.058;2023-05-10T14:18:28;2.30;;;1.62;;
23270;SDS011;11804;51.118;17.058;2023-05-10T14:20:56;1.65;;;1.30;;
23270;SDS011;11804;51.118;17.058;2023-05-10T14:23:24;2.35;;;1.87;;
23270;SDS011;11804;51.118;17.058;2023-05-10T14:25:52;1.62;;;1.30;;
23270;SDS011;11804;51.118;17.058;2023-05-10T14:28:20;1.87;;;1.35;;
23270;SDS011;11804;51.118;17.058;2023-05-10T14:30:49;2.25;;;1.35;;
23270;SDS011;11804;51.118;17.058;2023-05-10T14:33:17;1.37;;;1.00;;
23270;SDS011;11804;51.118;17.058;2023-05-10T14:35:45;1.07;;;1.00;;
23270;SDS011;11804;51.118;17.058;2023-05-10T14:38:13;1.30;;;1.10;;
23270;SDS011;11804;51.118;17.058;2023-05-10T14:40:41;1.50;;;1.30;;
23270;SDS011;11804;51.118;17.058;2023-05-10T14:43:10;6.10;;;1.90;;
23270;SDS011;11804;51.118;17.058;2023-05-10T14:45:37;3.00;;;1.02;;
23270;SDS011;11804;51.118;17.058;2023-05-10T14:48:05;1.30;;;1.20;;
23270;SDS011;11804;51.118;17.058;2023-05-10T14:50:35;1.20;;;1.10;;
23270;SDS011;11804;51.118;17.058;2023-05-10T14:53:04;1.30;;;1.00;;
23270;SDS011;11804;51.118;17.058;2023-05-10T14:55:32;1.10;;;1.00;;
23270;SDS011;11804;51.118;17.058;2023-05-10T14:58:06;1.20;;;1.00;;
23270;SDS011;11804;51.118;17.058;2023-05-10T15:00:30;1.02;;;1.00;;
23270;SDS011;11804;51.118;17.058;2023-05-10T15:02:58;2.98;;;1.42;;
23270;SDS011;11804;51.118;17.058;2023-05-10T15:05:26;2.20;;;1.30;;
23270;SDS011;11804;51.118;17.058;2023-05-10T15:07:53;1.27;;;1.07;;
23270;SDS011;11804;51.118;17.058;2023-05-10T15:10:22;1.67;;;1.22;;
23270;SDS011;11804;51.118;17.058;2023-05-10T15:12:51;2.47;;;1.00;;
23270;SDS011;11804;51.118;17.058;2023-05-10T15:15:19;0.98;;;0.90;;
23270;SDS011;11804;51.118;17.058;2023-05-10T15:17:47;3.95;;;1.20;;
23270;SDS011;11804;51.118;17.058;2023-05-10T15:20:15;4.30;;;1.87;;